JUH weather

Juarez Hermanos Airstrip
Mexicali, Baja California, Mexico

Public forecast

Using degrees Celsius for public forecast. Weather courtesy of forecast.io.

Closest aviation weather report (METAR) to Juarez Hermanos Airstrip

Closest report is General Rodolfo Sánchez Taboada International Airport, 16.6 nm (30.8 km) WNW. Retrieved 2019/10/17 15:53 UTC (44 minutes ago):

MMML 171553Z 27002KT 10SM SKC 25/02 A2974

Closest aviation forecast (TAF) to Juarez Hermanos Airstrip

Forecast is more than 6 hours old.

Closest forecast is General Rodolfo Sánchez Taboada International Airport, 16.6 nm (30.8 km) WNW. Retrieved 2019/10/17 06:16 UTC (10 hours ago):

TAF MMML 170409Z 1706/1806 30005KT P6SM SCT250 FM171700 30010KT P6SM SKC FM180300 30005KT P6SM SKC